Time;durP1;ratioP1;P1;durP2;ratioP2;P2;SDS_P1;SDS_P2;PMS_P1;PMS_P2;Temp;Humidity;BMP_temperature;BMP_pressure;BME280_temperature;BME280_humidity;BME280_pressure;Samples;Min_cycle;Max_cycle;Signal;HPM_P1;HPM_P2
2021/05/11 05:00:44;;;;;;;3.35;1.30;;;;;;;25.11;32.48;94934.19;5658464;24;20023;-71
2021/05/11 05:03:13;;;;;;;2.03;1.30;;;;;;;23.48;32.09;94936.91;4718740;30;20044;-72
2021/05/11 05:05:38;;;;;;;2.75;1.58;;;;;;;24.53;33.04;94930.00;4736312;30;20075;-72
2021/05/11 05:08:05;;;;;;;2.70;0.98;;;;;;;25.26;30.02;94934.25;4749940;30;20023;-73
2021/05/11 05:10:30;;;;;;;1.17;1.08;;;;;;;25.28;30.46;94928.66;4750921;30;20114;-72
2021/05/11 05:12:56;;;;;;;0.90;0.80;;;;;;;23.95;31.17;94928.31;4720614;30;20032;-72
2021/05/11 05:15:21;;;;;;;1.20;1.10;;;;;;;22.86;32.07;94928.56;4736337;30;20040;-73
2021/05/11 05:17:47;;;;;;;1.33;0.80;;;;;;;24.19;29.31;94926.88;4735509;30;20039;-72
2021/05/11 05:20:13;;;;;;;5.80;1.00;;;;;;;23.81;30.37;94920.00;4750510;30;20540;-73
2021/05/11 05:22:38;;;;;;;1.88;1.00;;;;;;;23.15;30.64;94925.72;4734756;30;20039;-73
2021/05/11 05:25:12;;;;;;;1.38;0.80;;;;;;;26.50;26.18;94922.28;4736168;30;20035;-72
2021/05/11 05:30:04;;;;;;;5.25;1.02;;;;;;;27.03;26.28;94929.56;4766113;30;20081;-72
2021/05/11 05:32:29;;;;;;;2.67;0.82;;;;;;;26.29;27.36;94926.09;4767275;30;20031;-73
2021/05/11 05:34:55;;;;;;;1.02;0.73;;;;;;;29.42;23.64;94927.09;4750067;30;20077;-73
2021/05/11 05:37:20;;;;;;;4.75;0.90;;;;;;;26.84;27.41;94927.81;4750867;30;20047;-73
2021/05/11 05:39:48;;;;;;;3.35;1.20;;;;;;;27.18;28.85;94929.50;4750261;30;20032;-72
2021/05/11 05:42:14;;;;;;;1.90;1.17;;;;;;;25.02;30.41;94928.63;4736292;30;20417;-73
2021/05/11 05:44:39;;;;;;;3.42;0.82;;;;;;;27.61;27.64;94927.13;4750639;30;20031;-72
2021/05/11 05:47:05;;;;;;;2.05;0.75;;;;;;;27.98;27.14;94934.53;4749547;30;20042;-73
2021/05/11 05:49:41;;;;;;;1.02;0.80;;;;;;;27.26;28.07;94924.66;4751005;30;20479;-73
2021/05/11 05:52:09;;;;;;;1.70;1.15;;;;;;;27.66;27.31;94921.75;4736262;30;20434;-72
2021/05/11 05:54:35;;;;;;;1.98;1.13;;;;;;;26.62;29.94;94912.16;4766630;30;20027;-72
2021/05/11 05:57:00;;;;;;;1.17;1.08;;;;;;;25.92;29.82;94918.38;4765214;30;20047;-73
2021/05/11 05:59:26;;;;;;;2.53;1.38;;;;;;;27.07;28.70;94919.97;4735445;30;20039;-73
2021/05/11 06:01:53;;;;;;;2.03;1.40;;;;;;;28.29;27.49;94916.44;4765275;30;20060;-73
2021/05/11 06:04:20;;;;;;;2.47;1.10;;;;;;;25.64;30.85;94909.91;4733867;30;20067;-73
2021/05/11 06:06:47;;;;;;;0.80;0.80;;;;;;;27.21;27.96;94910.31;4749187;30;20047;-73
2021/05/11 06:09:16;;;;;;;2.58;0.90;;;;;;;28.07;27.37;94908.91;4748377;30;20035;-72
2021/05/11 06:11:51;;;;;;;1.90;1.38;;;;;;;26.25;29.44;94914.41;4734775;30;20039;-72
2021/05/11 06:19:26;;;;;;;3.10;1.00;;;;;;;28.90;26.57;94893.34;4751970;30;20112;-72
2021/05/11 06:21:52;;;;;;;2.08;1.13;;;;;;;28.21;27.53;94909.84;4763879;30;20441;-73
2021/05/11 06:24:17;;;;;;;4.18;0.93;;;;;;;28.49;27.09;94903.69;4749506;30;20058;-71
2021/05/11 06:26:43;;;;;;;2.28;1.00;;;;;;;27.52;27.25;94899.47;4718802;30;20035;-72
2021/05/11 06:29:10;;;;;;;1.88;0.90;;;;;;;25.52;29.80;94898.78;4748468;30;20036;-73
2021/05/11 06:31:35;;;;;;;1.73;0.88;;;;;;;21.23;37.61;94900.06;4748501;30;20035;-72
2021/05/11 06:34:02;;;;;;;2.13;0.95;;;;;;;20.08;38.83;94904.63;4719113;30;20470;-72
2021/05/11 06:36:28;;;;;;;1.92;0.95;;;;;;;21.41;36.58;94897.22;4749383;30;20081;-72
2021/05/11 06:38:53;;;;;;;1.83;0.93;;;;;;;20.75;38.33;94895.22;4732413;30;20043;-72
2021/05/11 06:41:20;;;;;;;1.17;0.80;;;;;;;21.04;37.50;94891.56;4747879;30;20038;-71
2021/05/11 06:43:46;;;;;;;1.88;1.00;;;;;;;23.98;34.05;94891.53;4747088;30;20036;-73
2021/05/11 06:53:54;;;;;;;1.90;1.00;;;;;;;27.19;27.98;94874.41;4754651;30;20075;-71
2021/05/11 06:56:21;;;;;;;2.85;0.90;;;;;;;26.26;27.84;94874.28;4745792;30;20059;-71
2021/05/11 06:58:47;;;;;;;1.13;1.02;;;;;;;25.89;30.11;94865.81;4730298;30;20094;-71
2021/05/11 07:01:20;;;;;;;2.45;0.80;;;;;;;25.29;31.27;94867.41;4724128;30;20092;-71
2021/05/11 07:03:46;;;;;;;0.80;0.80;;;;;;;22.90;35.84;94870.75;4746549;30;20560;-73
2021/05/11 07:06:13;;;;;;;5.25;1.20;;;;;;;22.40;37.15;94865.69;4742233;30;20059;-72
2021/05/11 07:08:43;;;;;;;2.13;1.10;;;;;;;23.17;35.27;94863.63;4739323;30;20035;-72
2021/05/11 07:11:25;;;;;;;2.90;0.90;;;;;;;22.40;35.22;94863.84;4734319;30;20089;-72
2021/05/11 07:13:51;;;;;;;1.73;1.00;;;;;;;20.49;41.08;94865.00;4736126;30;20039;-73
2021/05/11 07:16:16;;;;;;;0.88;0.80;;;;;;;21.16;38.88;94867.81;4747722;30;20040;-72
2021/05/11 07:18:42;;;;;;;2.22;0.90;;;;;;;21.69;41.13;94869.97;4746717;30;20117;-72
2021/05/11 07:21:07;;;;;;;1.23;0.95;;;;;;;22.04;38.24;94857.31;4763438;30;20395;-72
2021/05/11 07:23:33;;;;;;;4.20;0.95;;;;;;;20.33;40.75;94863.09;4747522;30;20032;-71
2021/05/11 07:31:13;;;;;;;1.40;1.00;;;;;;;22.00;39.00;94853.56;4733539;30;20075;-72
2021/05/11 07:36:05;;;;;;;1.65;1.05;;;;;;;20.76;39.61;94854.72;4766043;30;20118;-70
2021/05/11 07:38:30;;;;;;;1.35;0.80;;;;;;;20.89;39.29;94859.69;4720079;30;20068;-72
2021/05/11 07:40:56;;;;;;;1.20;1.02;;;;;;;21.70;39.99;94857.59;4735891;30;20075;-72
2021/05/11 07:43:24;;;;;;;3.22;0.93;;;;;;;22.00;38.13;94855.41;4734566;30;20047;-72
2021/05/11 07:46:20;;;;;;;2.00;1.10;;;;;;;22.24;37.64;94854.16;4736627;30;20043;-73
2021/05/11 07:48:51;;;;;;;1.58;0.93;;;;;;;22.13;38.13;94849.78;4738924;30;20046;-71
2021/05/11 08:04:40;;;;;;;1.95;0.70;;;;;;;21.73;38.89;94842.09;4739034;30;20120;-71
2021/05/11 08:17:45;;;;;;;2.35;0.85;;;;;;;23.23;35.99;94825.63;4735976;30;20032;-72
2021/05/11 08:28:11;;;;;;;2.65;0.80;;;;;;;23.01;38.18;94825.69;4750046;30;20036;-71
2021/05/11 08:30:37;;;;;;;1.33;1.02;;;;;;;23.41;36.08;94819.97;4749582;30;20039;-71
2021/05/11 08:33:02;;;;;;;1.35;0.80;;;;;;;22.17;37.85;94823.69;4720973;30;20036;-71
2021/05/11 08:35:28;;;;;;;1.02;0.80;;;;;;;22.09;37.46;94818.84;4745822;30;20055;-71
2021/05/11 08:37:53;;;;;;;1.85;1.00;;;;;;;22.53;39.14;94818.59;4762519;30;20031;-72
2021/05/11 08:40:19;;;;;;;2.00;0.80;;;;;;;23.00;36.33;94815.38;4732096;30;20046;-71
2021/05/11 08:42:45;;;;;;;0.98;0.88;;;;;;;22.31;37.62;94809.91;4734921;30;20039;-71
2021/05/11 08:45:11;;;;;;;3.15;0.80;;;;;;;22.62;37.16;94805.72;4733854;30;20105;-71
2021/05/11 08:47:50;;;;;;;1.58;0.98;;;;;;;23.16;37.76;94806.53;4747561;30;20413;-73
2021/05/11 08:50:27;;;;;;;3.00;0.90;;;;;;;23.19;35.22;94792.78;4750815;30;20083;-71
2021/05/11 08:53:11;;;;;;;1.45;0.90;;;;;;;22.85;36.39;94796.75;4717031;30;20054;-73
2021/05/11 09:04:39;;;;;;;1.38;0.90;;;;;;;23.17;36.58;94786.19;4739289;30;20039;-72
2021/05/11 09:24:35;;;;;;;2.45;0.60;;;;;;;23.78;34.70;94761.75;4764356;30;20122;-72
2021/05/11 09:27:18;;;;;;;0.88;0.80;;;;;;;23.99;34.48;94762.63;4763968;30;20470;-71
2021/05/11 09:54:47;;;;;;;1.83;0.70;;;;;;;24.49;34.53;94740.84;4720556;30;20098;-71
2021/05/11 10:11:39;;;;;;;4.82;1.00;;;;;;;24.92;34.44;94726.34;4742992;30;20910;-72
2021/05/11 10:48:18;;;;;;;1.00;0.60;;;;;;;25.51;32.42;94706.16;4696947;30;20044;-72
2021/05/11 10:50:51;;;;;;;0.82;0.60;;;;;;;25.66;31.36;94708.75;4725655;30;20133;-71
2021/05/11 10:53:35;;;;;;;0.80;0.70;;;;;;;25.14;32.47;94705.66;4710521;30;20045;-71
2021/05/11 10:56:32;;;;;;;2.60;0.65;;;;;;;25.90;33.15;94708.13;4726818;30;20461;-71
2021/05/11 11:01:52;;;;;;;3.55;0.70;;;;;;;24.94;33.59;94701.16;4710267;30;20482;-71
2021/05/11 11:04:31;;;;;;;2.50;0.60;;;;;;;25.14;32.78;94698.47;4712252;30;20143;-72
2021/05/11 11:06:57;;;;;;;;;;;;;;;25.15;32.66;94697.44;4696448;30;20130;-72
2021/05/11 11:09:24;;;;;;;1.02;0.60;;;;;;;25.04;32.35;94692.41;4733252;30;19980;-72
2021/05/11 11:11:49;;;;;;;0.47;0.47;;;;;;;25.54;31.90;94694.19;4717147;30;20122;-72
2021/05/11 11:14:15;;;;;;;0.80;0.55;;;;;;;25.67;32.85;94696.28;4747336;30;20442;-72
2021/05/11 11:16:40;;;;;;;1.20;0.50;;;;;;;25.09;32.40;94687.91;4748173;30;20099;-72
2021/05/11 11:19:12;;;;;;;1.20;0.45;;;;;;;25.42;30.34;94691.81;4732489;30;20048;-71
2021/05/11 11:24:32;;;;;;;0.75;0.52;;;;;;;25.00;31.21;94686.06;4747194;30;20093;-72
2021/05/11 11:26:58;;;;;;;0.70;0.50;;;;;;;25.12;30.72;94697.16;4714834;30;20140;-72
2021/05/11 11:29:25;;;;;;;1.83;0.55;;;;;;;25.47;29.89;94691.78;4730643;30;20170;-73
2021/05/11 11:31:50;;;;;;;1.30;0.57;;;;;;;25.01;29.54;94692.94;4732504;30;20082;-73
2021/05/11 11:34:36;;;;;;;1.48;0.50;;;;;;;25.33;30.04;94690.78;4733297;30;20032;-72
2021/05/11 11:37:10;;;;;;;1.83;0.60;;;;;;;24.46;31.71;94689.19;4732674;30;20483;-72
2021/05/11 11:39:37;;;;;;;1.42;0.70;;;;;;;24.79;31.99;94695.81;4748228;30;20063;-74
2021/05/11 11:42:06;;;;;;;1.55;0.70;;;;;;;25.30;33.72;94683.34;4745273;30;20043;-71
2021/05/11 11:44:37;;;;;;;1.70;0.65;;;;;;;25.06;31.73;94683.13;4732387;30;20032;-73
2021/05/11 11:47:03;;;;;;;1.27;0.60;;;;;;;25.57;28.94;94689.16;4747380;30;20044;-73
2021/05/11 11:49:30;;;;;;;0.75;0.57;;;;;;;25.75;32.06;94690.41;4746956;30;20040;-73
2021/05/11 11:52:45;;;;;;;1.27;0.70;;;;;;;25.76;31.20;94683.22;4747610;30;20474;-72
2021/05/11 12:00:23;;;;;;;1.23;0.50;;;;;;;25.02;30.46;94686.56;4747327;30;20511;-73
2021/05/11 12:03:01;;;;;;;0.70;0.70;;;;;;;25.86;32.29;94675.22;4731746;30;20063;-72
2021/05/11 12:05:34;;;;;;;2.45;0.63;;;;;;;25.09;32.38;94674.63;4748715;30;20538;-73
2021/05/11 12:10:41;;;;;;;;;;;;;;;24.75;32.50;94668.28;4733624;30;20420;-73
2021/05/11 12:13:08;;;;;;;1.30;0.60;;;;;;;24.50;32.50;94668.25;4748141;30;19975;-73
2021/05/11 12:15:33;;;;;;;2.10;0.73;;;;;;;24.45;32.15;94663.75;4731741;30;20040;-72
2021/05/11 12:18:26;;;;;;;17.30;0.98;;;;;;;25.24;31.67;94668.50;4747191;30;20035;-73
2021/05/11 12:20:58;;;;;;;1.23;0.90;;;;;;;24.45;31.60;94647.88;4734600;30;20070;-73
2021/05/11 12:23:24;;;;;;;1.60;0.68;;;;;;;24.72;31.40;94649.47;4716851;30;20044;-73
2021/05/11 12:26:06;;;;;;;2.63;0.70;;;;;;;24.13;31.70;94650.75;4746924;30;20036;-73
2021/05/11 12:28:35;;;;;;;8.75;0.90;;;;;;;24.30;31.28;94652.38;4731272;30;20116;-72
2021/05/11 12:31:02;;;;;;;0.75;0.63;;;;;;;24.30;31.40;94647.88;4747221;30;20059;-74
2021/05/11 12:33:38;;;;;;;0.95;0.70;;;;;;;24.48;31.47;94636.75;4730486;30;20101;-73
2021/05/11 12:36:14;;;;;;;2.55;0.80;;;;;;;24.50;30.93;94642.56;4715454;30;20028;-74
2021/05/11 12:38:40;;;;;;;3.00;0.70;;;;;;;24.25;31.31;94636.47;4714294;30;20032;-72
2021/05/11 12:41:10;;;;;;;0.88;0.70;;;;;;;24.69;32.04;94640.22;4733649;30;20036;-74
2021/05/11 12:43:40;;;;;;;1.38;0.73;;;;;;;24.71;31.43;94642.56;4732603;30;20029;-75
2021/05/11 12:46:19;;;;;;;4.45;0.88;;;;;;;24.29;32.16;94642.81;4746443;30;20503;-75
2021/05/11 12:48:57;;;;;;;2.20;0.50;;;;;;;24.05;30.65;94634.53;4732553;30;20442;-75
2021/05/11 12:51:41;;;;;;;0.77;0.60;;;;;;;24.44;30.54;94638.34;4745722;30;20044;-74
2021/05/11 12:54:38;;;;;;;2.20;0.60;;;;;;;24.02;30.98;94632.41;4714129;30;20770;-75
2021/05/11 12:59:43;;;;;;;1.48;0.75;;;;;;;24.16;30.78;94622.16;4713436;30;20040;-74
2021/05/11 13:13:51;;;;;;;2.28;0.40;;;;;;;23.91;29.90;94612.28;4742402;30;20062;-73
2021/05/11 13:16:29;;;;;;;0.52;0.50;;;;;;;24.09;29.27;94617.09;4723507;30;20477;-74
2021/05/11 13:27:19;;;;;;;2.10;0.50;;;;;;;24.59;29.88;94597.81;4733960;30;20039;-74
2021/05/11 13:32:34;;;;;;;1.08;0.40;;;;;;;23.96;28.69;94599.06;4746293;30;20487;-71
2021/05/11 13:35:00;;;;;;;2.22;0.52;;;;;;;24.00;29.49;94579.75;4745979;30;20026;-75
2021/05/11 13:37:27;;;;;;;0.40;0.40;;;;;;;24.23;29.87;94594.38;4729967;30;20518;-74
2021/05/11 13:39:53;;;;;;;3.45;0.70;;;;;;;24.02;29.34;94588.22;4717528;30;20024;-74
2021/05/11 13:42:19;;;;;;;4.82;0.57;;;;;;;23.64;30.46;94580.75;4714668;30;20036;-74
2021/05/11 13:44:44;;;;;;;0.60;0.50;;;;;;;24.01;30.78;94591.16;4731444;30;20040;-73
2021/05/11 13:47:10;;;;;;;0.60;0.57;;;;;;;23.97;30.49;94572.34;4744651;30;20024;-75
2021/05/11 13:49:35;;;;;;;0.77;0.50;;;;;;;24.43;31.28;94589.09;4730879;30;20153;-74
2021/05/11 13:52:01;;;;;;;3.67;0.80;;;;;;;23.82;30.54;94574.19;4744894;30;20031;-75
2021/05/11 13:54:26;;;;;;;0.98;0.60;;;;;;;23.84;30.72;94586.09;4730428;30;20036;-74
2021/05/11 14:04:54;;;;;;;2.03;0.85;;;;;;;23.81;32.27;94576.03;4746203;30;20097;-74
2021/05/11 14:07:20;;;;;;;1.35;0.77;;;;;;;23.60;32.52;94579.66;4744609;30;20036;-73
2021/05/11 14:09:45;;;;;;;1.63;0.70;;;;;;;23.71;33.36;94577.84;4745235;30;20050;-74
2021/05/11 14:12:11;;;;;;;0.60;0.50;;;;;;;24.19;33.62;94573.97;4729743;30;20036;-74
2021/05/11 14:14:38;;;;;;;3.72;0.80;;;;;;;23.78;33.54;94567.81;4730727;30;20082;-71
2021/05/11 14:17:03;;;;;;;4.63;1.00;;;;;;;23.71;33.43;94568.06;4729498;30;20610;-73
2021/05/11 14:19:30;;;;;;;0.73;0.73;;;;;;;23.88;33.07;94565.19;4745041;30;20080;-74
2021/05/11 14:21:56;;;;;;;1.35;0.80;;;;;;;23.76;33.31;94570.72;4729565;30;20078;-73
2021/05/11 14:24:22;;;;;;;1.88;0.82;;;;;;;23.63;32.92;94566.72;4730294;30;20517;-73
2021/05/11 14:26:47;;;;;;;1.05;0.82;;;;;;;23.85;32.86;94563.88;4715596;30;20036;-74
2021/05/11 14:29:13;;;;;;;0.70;0.60;;;;;;;23.54;33.23;94570.94;4729644;30;20447;-72
2021/05/11 14:31:38;;;;;;;1.40;0.70;;;;;;;23.65;33.76;94555.88;4744711;30;20059;-75
2021/05/11 14:34:05;;;;;;;0.70;0.68;;;;;;;24.08;33.73;94559.94;4743890;30;20028;-74
2021/05/11 14:36:30;;;;;;;2.53;0.70;;;;;;;23.82;33.09;94547.72;4745342;30;20055;-73
2021/05/11 14:38:56;;;;;;;1.02;0.68;;;;;;;23.86;32.83;94552.22;4729090;30;20066;-74
2021/05/11 14:41:21;;;;;;;1.85;0.90;;;;;;;23.47;32.24;94543.94;4728998;30;20032;-72
2021/05/11 14:43:47;;;;;;;5.70;1.02;;;;;;;23.38;32.66;94550.75;4727885;30;20157;-73
2021/05/11 14:46:13;;;;;;;1.55;0.77;;;;;;;23.56;32.11;94542.38;4732967;30;20137;-73
2021/05/11 14:48:38;;;;;;;8.70;0.98;;;;;;;23.54;32.90;94543.69;4733365;30;20036;-74
2021/05/11 14:51:05;;;;;;;3.35;0.70;;;;;;;23.26;32.86;94536.19;4718337;30;20090;-73
2021/05/11 14:53:31;;;;;;;6.07;0.80;;;;;;;23.07;32.54;94544.56;4733664;30;20037;-73
2021/05/11 14:55:57;;;;;;;2.30;0.57;;;;;;;23.24;33.28;94539.09;4747511;30;20040;-72
2021/05/11 14:58:22;;;;;;;3.03;0.85;;;;;;;23.37;32.83;94537.81;4748630;30;20040;-74
2021/05/11 15:00:48;;;;;;;1.90;0.63;;;;;;;23.37;33.38;94535.16;4734355;30;20507;-73
2021/05/11 15:03:14;;;;;;;4.20;0.70;;;;;;;23.28;33.03;94531.44;4721759;30;20122;-74
2021/05/11 15:05:40;;;;;;;0.88;0.73;;;;;;;23.20;32.58;94524.00;4721771;30;20036;-74
2021/05/11 15:08:05;;;;;;;4.70;0.70;;;;;;;23.37;32.56;94538.59;4721028;30;20036;-73
2021/05/11 15:10:31;;;;;;;1.83;0.70;;;;;;;23.20;32.53;94522.16;4751163;30;20521;-75
2021/05/11 15:12:57;;;;;;;1.10;0.63;;;;;;;23.37;32.46;94529.88;4735317;30;20036;-74
2021/05/11 15:15:22;;;;;;;4.50;0.80;;;;;;;23.34;32.50;94523.25;4751616;30;20058;-73
2021/05/11 15:20:14;;;;;;;2.30;0.60;;;;;;;22.87;32.41;94502.19;4767687;30;20105;-73
2021/05/11 15:22:39;;;;;;;1.48;0.70;;;;;;;22.84;32.41;94523.06;4750118;30;20050;-73
2021/05/11 15:25:06;;;;;;;1.20;0.77;;;;;;;23.00;32.75;94511.50;4736160;30;20040;-73
2021/05/11 15:27:31;;;;;;;5.13;0.77;;;;;;;22.86;32.51;94516.44;4736668;30;20417;-73
2021/05/11 15:29:57;;;;;;;1.42;0.80;;;;;;;22.80;32.86;94516.69;4749555;30;20039;-72
2021/05/11 15:32:41;;;;;;;2.70;0.70;;;;;;;22.96;33.12;94523.63;4736338;30;20039;-73
2021/05/11 15:35:11;;;;;;;0.60;0.60;;;;;;;22.75;32.92;94511.38;4765921;30;20477;-73
2021/05/11 15:37:37;;;;;;;2.33;0.93;;;;;;;22.72;33.51;94514.53;4766886;30;20036;-73
2021/05/11 15:40:13;;;;;;;3.35;0.73;;;;;;;22.71;33.87;94505.03;4735401;30;20089;-73
2021/05/11 15:42:39;;;;;;;1.10;0.80;;;;;;;22.72;33.98;94506.63;4749600;30;20126;-73
2021/05/11 15:45:05;;;;;;;0.88;0.70;;;;;;;22.71;33.71;94508.47;4750879;30;20040;-73
2021/05/11 15:47:30;;;;;;;1.52;0.60;;;;;;;22.50;33.30;94517.31;4748750;30;20040;-72
2021/05/11 15:49:56;;;;;;;1.08;0.60;;;;;;;22.57;34.04;94502.81;4721399;30;20122;-73
2021/05/11 15:52:21;;;;;;;9.63;1.08;;;;;;;22.40;33.47;94496.91;4734698;30;20189;-71
2021/05/11 15:54:50;;;;;;;1.23;0.50;;;;;;;22.38;33.63;94499.00;4750356;30;20470;-72
2021/05/11 15:57:16;;;;;;;2.17;0.70;;;;;;;22.32;34.14;94488.66;4749980;30;20063;-71
2021/05/11 15:59:42;;;;;;;2.28;0.80;;;;;;;22.35;34.43;94493.44;4734802;30;20063;-73
2021/05/11 16:02:08;;;;;;;0.90;0.70;;;;;;;22.47;34.74;94494.84;4735437;30;20048;-72
2021/05/11 16:04:35;;;;;;;0.75;0.50;;;;;;;22.19;34.04;94497.81;4734474;30;20071;-73
2021/05/11 16:07:00;;;;;;;1.00;0.80;;;;;;;21.97;33.52;94491.84;4734497;30;20051;-71
2021/05/11 16:09:26;;;;;;;3.35;0.60;;;;;;;22.00;34.02;94494.78;4719335;30;20039;-71
2021/05/11 16:11:51;;;;;;;3.10;0.75;;;;;;;21.95;33.64;94500.03;4766286;30;20039;-73
2021/05/11 16:14:17;;;;;;;0.90;0.50;;;;;;;21.84;34.40;94502.78;4749548;30;20539;-72
2021/05/11 16:16:42;;;;;;;0.65;0.63;;;;;;;21.75;34.32;94504.31;4765525;30;20039;-71
2021/05/11 16:19:08;;;;;;;2.67;0.85;;;;;;;21.69;34.54;94500.03;4720637;30;20425;-73
2021/05/11 16:21:33;;;;;;;1.80;0.82;;;;;;;21.67;34.31;94507.41;4720231;30;20032;-72
2021/05/11 16:23:59;;;;;;;1.80;0.82;;;;;;;21.49;34.48;94490.91;4733120;30;20542;-73
2021/05/11 16:26:27;;;;;;;0.60;0.50;;;;;;;21.39;34.77;94506.59;4748188;30;20040;-73
2021/05/11 16:28:53;;;;;;;3.40;0.80;;;;;;;21.35;35.60;94508.13;4750351;30;20089;-72
2021/05/11 16:31:19;;;;;;;0.98;0.70;;;;;;;21.29;35.40;94500.44;4734327;30;20035;-73
2021/05/11 16:33:44;;;;;;;1.52;0.70;;;;;;;21.20;35.00;94496.66;4734868;30;20048;-72
2021/05/11 16:36:10;;;;;;;1.63;0.70;;;;;;;21.16;35.16;94508.75;4749479;30;20610;-73
2021/05/11 16:38:35;;;;;;;1.95;0.50;;;;;;;21.08;36.38;94504.66;4765100;30;20051;-73
2021/05/11 16:41:01;;;;;;;1.48;0.80;;;;;;;20.94;36.00;94498.16;4747768;30;20043;-72
2021/05/11 16:43:26;;;;;;;0.77;0.70;;;;;;;20.91;35.50;94499.47;4712572;30;20113;-70
2021/05/11 16:45:52;;;;;;;0.98;0.90;;;;;;;20.78;35.65;94506.94;4743689;30;20032;-72
2021/05/11 16:48:17;;;;;;;1.40;0.80;;;;;;;20.77;34.71;94500.09;4747518;30;20498;-70
2021/05/11 16:50:43;;;;;;;1.13;0.70;;;;;;;20.62;35.29;94494.59;4748750;30;20047;-70
2021/05/11 16:53:13;;;;;;;1.38;0.60;;;;;;;20.59;34.71;94503.00;4741448;30;20585;-71
2021/05/11 16:55:39;;;;;;;3.85;0.57;;;;;;;20.40;34.75;94500.66;4760717;30;20403;-69
2021/05/11 16:58:04;;;;;;;0.70;0.60;;;;;;;20.29;35.38;94498.91;4739814;30;20036;-71
2021/05/11 17:00:31;;;;;;;3.50;0.70;;;;;;;20.18;36.01;94506.88;4712429;30;20040;-70
2021/05/11 17:02:56;;;;;;;2.20;0.50;;;;;;;20.06;36.14;94506.16;4729568;30;20051;-71
2021/05/11 17:05:23;;;;;;;1.10;0.80;;;;;;;20.02;36.37;94492.69;4731374;30;20062;-69
2021/05/11 17:07:48;;;;;;;1.15;0.55;;;;;;;19.84;36.88;94503.47;4731296;30;20125;-73
2021/05/11 17:10:14;;;;;;;2.22;0.80;;;;;;;19.71;37.54;94498.53;4740935;30;20043;-70
2021/05/11 17:12:40;;;;;;;1.23;0.70;;;;;;;19.66;37.46;94493.97;4738931;30;20031;-69
2021/05/11 17:15:06;;;;;;;4.30;1.08;;;;;;;19.68;37.10;94501.63;4744002;30;20118;-73
2021/05/11 17:17:31;;;;;;;3.50;1.15;;;;;;;19.49;38.06;94501.03;4743857;30;20035;-73
2021/05/11 17:19:57;;;;;;;3.42;1.00;;;;;;;19.37;38.87;94503.69;4725037;30;20442;-70
2021/05/11 17:22:22;;;;;;;2.65;0.70;;;;;;;19.30;38.39;94497.78;4713335;30;20096;-73
2021/05/11 17:24:48;;;;;;;1.52;0.60;;;;;;;19.21;38.63;94501.00;4749470;30;20036;-73
2021/05/11 17:27:13;;;;;;;1.35;0.70;;;;;;;18.98;38.90;94499.28;4732579;30;20063;-71
2021/05/11 17:29:39;;;;;;;1.30;0.60;;;;;;;18.92;39.11;94500.22;4734490;30;20106;-73
2021/05/11 17:32:06;;;;;;;0.75;0.70;;;;;;;18.75;39.87;94500.13;4747858;30;20455;-73
2021/05/11 17:34:31;;;;;;;1.35;0.63;;;;;;;18.67;39.97;94497.06;4720014;30;20040;-73
2021/05/11 17:36:57;;;;;;;2.45;0.82;;;;;;;18.62;40.43;94497.00;4748216;30;20514;-71
2021/05/11 17:39:23;;;;;;;2.75;0.80;;;;;;;18.48;40.80;94504.28;4733198;30;20042;-73
2021/05/11 17:41:49;;;;;;;1.17;0.70;;;;;;;18.17;41.20;94489.69;4764931;30;20035;-70
2021/05/11 17:44:14;;;;;;;1.58;0.68;;;;;;;18.13;41.91;94498.25;4732416;30;20035;-73
2021/05/11 17:46:40;;;;;;;3.33;1.00;;;;;;;18.12;41.76;94492.22;4734261;30;20038;-73
2021/05/11 17:49:06;;;;;;;2.90;0.90;;;;;;;18.01;41.80;94493.03;4763496;30;20028;-73
2021/05/11 17:51:32;;;;;;;5.10;0.93;;;;;;;17.95;42.46;94501.75;4719652;30;20433;-73
2021/05/11 17:53:57;;;;;;;3.80;0.68;;;;;;;17.89;42.79;94503.47;4718675;30;20035;-74
2021/05/11 17:56:29;;;;;;;2.38;0.77;;;;;;;17.95;43.38;94508.84;4733339;30;20032;-74
2021/05/11 17:58:54;;;;;;;2.20;0.80;;;;;;;17.81;43.02;94498.59;4720334;30;20035;-73
2021/05/11 18:01:20;;;;;;;3.08;1.20;;;;;;;17.76;44.16;94511.53;4747285;30;20408;-73
2021/05/11 18:03:47;;;;;;;6.53;1.40;;;;;;;17.83;43.92;94503.59;4734026;30;20040;-73
2021/05/11 18:06:13;;;;;;;8.27;1.50;;;;;;;17.66;44.26;94489.56;4733069;30;20028;-74
2021/05/11 18:08:39;;;;;;;1.15;0.98;;;;;;;17.48;45.55;94507.94;4748582;30;20444;-73
2021/05/11 18:11:05;;;;;;;3.20;1.02;;;;;;;17.35;45.61;94507.09;4747375;30;20449;-74
2021/05/11 18:13:32;;;;;;;3.90;1.27;;;;;;;17.39;45.46;94503.03;4718345;30;20039;-73
2021/05/11 18:15:58;;;;;;;2.25;1.30;;;;;;;17.30;45.75;94503.56;4734146;30;20036;-74
2021/05/11 18:18:24;;;;;;;2.78;1.17;;;;;;;17.21;46.57;94507.53;4717461;30;20398;-75
2021/05/11 18:20:50;;;;;;;3.08;1.02;;;;;;;17.22;46.14;94504.66;4719212;30;20532;-77
2021/05/11 18:23:15;;;;;;;2.08;1.02;;;;;;;17.22;46.16;94507.28;4746520;30;20036;-76
2021/05/11 18:25:41;;;;;;;8.05;1.52;;;;;;;17.26;46.17;94505.81;4733792;30;20038;-74
2021/05/11 18:28:06;;;;;;;1.52;0.93;;;;;;;17.16;46.19;94500.31;4732368;30;20039;-73
2021/05/11 18:30:32;;;;;;;2.03;0.98;;;;;;;17.34;45.86;94505.50;4733187;30;20039;-74
2021/05/11 18:32:57;;;;;;;6.78;1.17;;;;;;;17.34;45.86;94513.34;4747558;30;20365;-76
2021/05/11 18:35:25;;;;;;;2.63;1.00;;;;;;;17.28;45.95;94518.69;4747306;30;20028;-73
2021/05/11 18:40:22;;;;;;;1.45;0.85;;;;;;;17.27;46.43;94522.34;4733567;30;20426;-76
2021/05/11 18:42:47;;;;;;;3.72;1.13;;;;;;;17.32;46.13;94519.84;4748176;30;20071;-74
2021/05/11 18:45:15;;;;;;;7.30;0.85;;;;;;;17.32;45.58;94512.78;4731968;30;20036;-74
2021/05/11 18:47:40;;;;;;;4.38;0.80;;;;;;;17.10;46.64;94532.63;4718708;30;20105;-75
2021/05/11 18:50:07;;;;;;;2.88;1.02;;;;;;;16.87;48.30;94527.25;4732547;30;20028;-75
2021/05/11 18:52:33;;;;;;;5.45;1.10;;;;;;;17.11;46.78;94528.19;4732446;30;20044;-74
2021/05/11 18:54:58;;;;;;;0.90;0.70;;;;;;;17.11;46.46;94520.34;4747878;30;20047;-74
2021/05/11 18:57:24;;;;;;;2.47;0.80;;;;;;;16.97;47.63;94530.16;4717248;30;20101;-73
2021/05/11 18:59:49;;;;;;;2.95;1.15;;;;;;;17.17;46.22;94525.47;4718361;30;20530;-77
2021/05/11 19:02:15;;;;;;;2.10;0.93;;;;;;;17.00;47.05;94532.34;4716529;30;20110;-76
2021/05/11 19:04:40;;;;;;;2.17;1.58;;;;;;;17.03;46.82;94521.44;4718779;30;20039;-75
2021/05/11 19:07:07;;;;;;;3.58;0.90;;;;;;;17.03;47.10;94531.09;4746870;30;20123;-77
2021/05/11 19:09:33;;;;;;;2.78;0.82;;;;;;;17.01;46.83;94530.53;4747413;30;20059;-76
2021/05/11 19:11:58;;;;;;;2.35;0.90;;;;;;;16.64;48.35;94537.59;4717881;30;20122;-74
2021/05/11 19:14:24;;;;;;;1.80;1.08;;;;;;;16.56;48.19;94536.06;4746935;30;20035;-74
2021/05/11 19:16:49;;;;;;;1.30;0.85;;;;;;;16.59;48.56;94540.06;4718557;30;20106;-73
2021/05/11 19:19:15;;;;;;;1.52;0.63;;;;;;;16.40;49.35;94541.84;4717235;30;20103;-74
2021/05/11 19:21:41;;;;;;;1.38;0.85;;;;;;;16.25;49.90;94542.16;4732807;30;20067;-75
2021/05/11 19:24:06;;;;;;;3.00;1.10;;;;;;;16.51;48.74;94543.72;4731900;30;20051;-74
2021/05/11 19:26:32;;;;;;;7.72;1.40;;;;;;;16.63;48.10;94539.41;4733004;30;20039;-74
2021/05/11 19:28:57;;;;;;;3.63;1.15;;;;;;;16.76;47.03;94536.63;4717786;30;20065;-76
2021/05/11 19:31:23;;;;;;;2.60;0.90;;;;;;;16.89;47.21;94554.00;4748775;30;20028;-77
2021/05/11 19:33:52;;;;;;;3.28;0.93;;;;;;;16.72;48.05;94559.03;4751279;30;20039;-73
2021/05/11 19:36:19;;;;;;;1.15;0.70;;;;;;;16.58;48.56;94551.53;4735417;30;20433;-73
2021/05/11 19:38:45;;;;;;;3.83;0.77;;;;;;;16.50;48.74;94547.38;4735957;30;20487;-73
2021/05/11 19:41:11;;;;;;;6.05;1.15;;;;;;;16.46;48.73;94564.50;4734996;30;20032;-74
2021/05/11 19:43:37;;;;;;;2.95;0.80;;;;;;;16.29;49.06;94553.00;4735687;30;20509;-73
2021/05/11 19:46:07;;;;;;;3.92;0.85;;;;;;;16.20;49.89;94556.91;4735305;30;20519;-73
2021/05/11 19:48:33;;;;;;;5.50;1.42;;;;;;;16.29;49.21;94559.03;4749859;30;20126;-75
2021/05/11 19:51:00;;;;;;;2.25;0.80;;;;;;;16.13;50.33;94561.38;4735888;30;20494;-73
2021/05/11 19:53:28;;;;;;;2.28;0.85;;;;;;;15.78;51.67;94559.25;4720378;30;20093;-73
2021/05/11 19:55:56;;;;;;;1.08;0.98;;;;;;;15.79;51.50;94562.66;4736296;30;20135;-77
2021/05/11 19:58:22;;;;;;;3.28;0.90;;;;;;;16.01;49.92;94550.84;4729315;30;20147;-76
2021/05/11 20:00:48;;;;;;;6.53;1.45;;;;;;;15.84;51.28;94552.38;4734643;30;20027;-77
2021/05/11 20:03:13;;;;;;;6.03;0.77;;;;;;;15.88;50.73;94555.38;4749296;30;20038;-75